sensor_id;sensor_type;location;lat;lon;timestamp;temperature;humidity
7572;DHT22;3827;49.928;8.548;2023-11-21T00:01:02;8.60;99.90
7572;DHT22;3827;49.928;8.548;2023-11-21T00:03:29;8.60;99.90
7572;DHT22;3827;49.928;8.548;2023-11-21T00:05:56;8.60;99.90
7572;DHT22;3827;49.928;8.548;2023-11-21T00:08:23;8.70;99.90
7572;DHT22;3827;49.928;8.548;2023-11-21T00:10:51;8.60;99.90
7572;DHT22;3827;49.928;8.548;2023-11-21T00:13:17;8.60;99.90
7572;DHT22;3827;49.928;8.548;2023-11-21T00:15:44;8.60;99.90
7572;DHT22;3827;49.928;8.548;2023-11-21T00:18:11;8.60;99.90
7572;DHT22;3827;49.928;8.548;2023-11-21T00:20:38;8.60;99.90
7572;DHT22;3827;49.928;8.548;2023-11-21T00:23:05;8.60;99.90
7572;DHT22;3827;49.928;8.548;2023-11-21T00:25:32;8.60;99.90
7572;DHT22;3827;49.928;8.548;2023-11-21T00:28:00;8.60;99.90
7572;DHT22;3827;49.928;8.548;2023-11-21T00:30:28;8.60;99.90
7572;DHT22;3827;49.928;8.548;2023-11-21T00:32:55;8.50;99.90
7572;DHT22;3827;49.928;8.548;2023-11-21T00:35:22;8.60;99.90
7572;DHT22;3827;49.928;8.548;2023-11-21T00:37:49;8.50;99.90
7572;DHT22;3827;49.928;8.548;2023-11-21T00:40:16;11.60;99.90
7572;DHT22;3827;49.928;8.548;2023-11-21T00:42:44;8.50;99.90
7572;DHT22;3827;49.928;8.548;2023-11-21T00:45:13;8.60;99.90
7572;DHT22;3827;49.928;8.548;2023-11-21T00:47:40;8.50;99.90
7572;DHT22;3827;49.928;8.548;2023-11-21T00:50:08;8.50;99.90
7572;DHT22;3827;49.928;8.548;2023-11-21T00:52:35;8.60;99.90
7572;DHT22;3827;49.928;8.548;2023-11-21T00:55:02;8.60;99.90
7572;DHT22;3827;49.928;8.548;2023-11-21T00:57:29;8.50;99.90
7572;DHT22;3827;49.928;8.548;2023-11-21T00:59:55;8.50;99.90
7572;DHT22;3827;49.928;8.548;2023-11-21T01:02:23;8.50;99.90
7572;DHT22;3827;49.928;8.548;2023-11-21T01:04:51;8.50;99.90
7572;DHT22;3827;49.928;8.548;2023-11-21T01:07:17;8.50;99.90
7572;DHT22;3827;49.928;8.548;2023-11-21T01:09:46;8.50;99.90
7572;DHT22;3827;49.928;8.548;2023-11-21T01:12:12;8.50;99.90
7572;DHT22;3827;49.928;8.548;2023-11-21T01:14:39;8.50;99.90
7572;DHT22;3827;49.928;8.548;2023-11-21T01:17:06;8.50;99.90
7572;DHT22;3827;49.928;8.548;2023-11-21T01:19:34;8.50;99.90
7572;DHT22;3827;49.928;8.548;2023-11-21T01:22:01;8.50;99.90
7572;DHT22;3827;49.928;8.548;2023-11-21T01:24:27;9.50;99.90
7572;DHT22;3827;49.928;8.548;2023-11-21T01:26:54;8.50;99.90
7572;DHT22;3827;49.928;8.548;2023-11-21T01:29:21;8.50;99.90
7572;DHT22;3827;49.928;8.548;2023-11-21T01:31:48;8.50;99.90
7572;DHT22;3827;49.928;8.548;2023-11-21T01:34:14;8.50;99.90
7572;DHT22;3827;49.928;8.548;2023-11-21T01:36:42;6.50;99.90
7572;DHT22;3827;49.928;8.548;2023-11-21T01:39:09;8.50;99.90
7572;DHT22;3827;49.928;8.548;2023-11-21T01:41:40;8.50;99.90
7572;DHT22;3827;49.928;8.548;2023-11-21T01:44:09;8.60;99.90
7572;DHT22;3827;49.928;8.548;2023-11-21T01:46:36;8.60;99.90
7572;DHT22;3827;49.928;8.548;2023-11-21T01:49:04;8.50;99.90
7572;DHT22;3827;49.928;8.548;2023-11-21T01:51:32;8.60;99.90
7572;DHT22;3827;49.928;8.548;2023-11-21T01:54:01;8.50;99.90
7572;DHT22;3827;49.928;8.548;2023-11-21T01:56:30;8.50;99.90
7572;DHT22;3827;49.928;8.548;2023-11-21T01:58:58;8.60;99.90
7572;DHT22;3827;49.928;8.548;2023-11-21T02:01:24;8.60;99.90
7572;DHT22;3827;49.928;8.548;2023-11-21T02:03:52;8.60;99.90
7572;DHT22;3827;49.928;8.548;2023-11-21T02:06:19;8.60;99.90
7572;DHT22;3827;49.928;8.548;2023-11-21T02:08:47;8.60;99.90
7572;DHT22;3827;49.928;8.548;2023-11-21T02:11:17;8.60;99.90
7572;DHT22;3827;49.928;8.548;2023-11-21T02:13:44;8.60;99.90
7572;DHT22;3827;49.928;8.548;2023-11-21T02:16:12;8.60;99.90
7572;DHT22;3827;49.928;8.548;2023-11-21T02:18:40;8.60;99.90
7572;DHT22;3827;49.928;8.548;2023-11-21T02:21:07;8.60;99.90
7572;DHT22;3827;49.928;8.548;2023-11-21T02:23:36;8.60;99.90
7572;DHT22;3827;49.928;8.548;2023-11-21T02:26:07;8.50;99.90
7572;DHT22;3827;49.928;8.548;2023-11-21T02:28:35;8.50;99.90
7572;DHT22;3827;49.928;8.548;2023-11-21T02:31:02;8.50;99.90
7572;DHT22;3827;49.928;8.548;2023-11-21T02:33:30;8.50;99.90
7572;DHT22;3827;49.928;8.548;2023-11-21T02:35:59;8.60;99.90
7572;DHT22;3827;49.928;8.548;2023-11-21T02:38:26;8.60;99.90
7572;DHT22;3827;49.928;8.548;2023-11-21T02:40:54;8.60;99.90
7572;DHT22;3827;49.928;8.548;2023-11-21T02:43:20;8.60;99.90
7572;DHT22;3827;49.928;8.548;2023-11-21T02:45:47;8.50;99.90
7572;DHT22;3827;49.928;8.548;2023-11-21T02:48:14;8.50;99.90
7572;DHT22;3827;49.928;8.548;2023-11-21T02:50:41;8.50;99.90
7572;DHT22;3827;49.928;8.548;2023-11-21T02:53:08;8.50;99.90
7572;DHT22;3827;49.928;8.548;2023-11-21T02:55:36;8.50;99.90
7572;DHT22;3827;49.928;8.548;2023-11-21T02:58:04;8.40;99.90
7572;DHT22;3827;49.928;8.548;2023-11-21T03:00:31;8.50;99.90
7572;DHT22;3827;49.928;8.548;2023-11-21T03:02:58;9.20;99.90
7572;DHT22;3827;49.928;8.548;2023-11-21T03:05:26;8.60;99.90
7572;DHT22;3827;49.928;8.548;2023-11-21T03:07:54;8.60;99.90
7572;DHT22;3827;49.928;8.548;2023-11-21T03:10:21;8.60;99.90
7572;DHT22;3827;49.928;8.548;2023-11-21T03:12:48;8.60;99.90
7572;DHT22;3827;49.928;8.548;2023-11-21T03:15:16;8.60;99.90
7572;DHT22;3827;49.928;8.548;2023-11-21T03:17:43;8.50;99.90
7572;DHT22;3827;49.928;8.548;2023-11-21T03:20:10;8.50;99.90
7572;DHT22;3827;49.928;8.548;2023-11-21T03:22:39;8.50;99.90
7572;DHT22;3827;49.928;8.548;2023-11-21T03:25:06;8.50;99.90
7572;DHT22;3827;49.928;8.548;2023-11-21T03:27:36;8.50;99.90
7572;DHT22;3827;49.928;8.548;2023-11-21T03:30:03;8.50;99.90
7572;DHT22;3827;49.928;8.548;2023-11-21T03:32:33;8.60;99.90
7572;DHT22;3827;49.928;8.548;2023-11-21T03:35:01;8.60;99.90
7572;DHT22;3827;49.928;8.548;2023-11-21T03:37:28;8.60;99.90
7572;DHT22;3827;49.928;8.548;2023-11-21T03:39:55;8.70;99.90
7572;DHT22;3827;49.928;8.548;2023-11-21T03:42:21;8.60;99.90
7572;DHT22;3827;49.928;8.548;2023-11-21T03:44:48;8.70;99.90
7572;DHT22;3827;49.928;8.548;2023-11-21T03:47:15;9.20;99.90
7572;DHT22;3827;49.928;8.548;2023-11-21T03:49:43;8.70;99.90
7572;DHT22;3827;49.928;8.548;2023-11-21T03:52:11;8.70;99.90
7572;DHT22;3827;49.928;8.548;2023-11-21T03:54:37;8.70;99.90
7572;DHT22;3827;49.928;8.548;2023-11-21T03:57:04;8.80;99.90
7572;DHT22;3827;49.928;8.548;2023-11-21T03:59:31;8.70;99.90
7572;DHT22;3827;49.928;8.548;2023-11-21T04:01:58;8.70;99.90
7572;DHT22;3827;49.928;8.548;2023-11-21T04:04:25;8.70;99.90
7572;DHT22;3827;49.928;8.548;2023-11-21T04:06:53;8.70;99.90
7572;DHT22;3827;49.928;8.548;2023-11-21T04:09:20;8.70;99.90
7572;DHT22;3827;49.928;8.548;2023-11-21T04:11:49;8.70;99.90
7572;DHT22;3827;49.928;8.548;2023-11-21T04:14:16;8.60;99.90
7572;DHT22;3827;49.928;8.548;2023-11-21T04:16:43;8.60;99.90
7572;DHT22;3827;49.928;8.548;2023-11-21T04:19:10;9.30;99.90
7572;DHT22;3827;49.928;8.548;2023-11-21T04:21:40;8.60;99.90
7572;DHT22;3827;49.928;8.548;2023-11-21T04:24:08;8.60;99.90
7572;DHT22;3827;49.928;8.548;2023-11-21T04:26:35;8.60;99.90
7572;DHT22;3827;49.928;8.548;2023-11-21T04:29:02;8.60;99.90
7572;DHT22;3827;49.928;8.548;2023-11-21T04:31:30;8.60;99.90
7572;DHT22;3827;49.928;8.548;2023-11-21T04:33:57;8.60;99.90
7572;DHT22;3827;49.928;8.548;2023-11-21T04:36:24;8.60;99.90
7572;DHT22;3827;49.928;8.548;2023-11-21T04:38:50;8.60;99.90
7572;DHT22;3827;49.928;8.548;2023-11-21T04:41:18;11.50;99.90
7572;DHT22;3827;49.928;8.548;2023-11-21T04:43:45;8.60;99.90
7572;DHT22;3827;49.928;8.548;2023-11-21T04:46:12;8.60;99.90
7572;DHT22;3827;49.928;8.548;2023-11-21T04:48:39;8.50;99.90
7572;DHT22;3827;49.928;8.548;2023-11-21T04:51:06;9.20;99.90
7572;DHT22;3827;49.928;8.548;2023-11-21T04:53:32;8.60;99.90
7572;DHT22;3827;49.928;8.548;2023-11-21T04:56:00;8.60;99.90
7572;DHT22;3827;49.928;8.548;2023-11-21T04:58:28;8.90;99.90
7572;DHT22;3827;49.928;8.548;2023-11-21T05:00:54;8.60;99.90
7572;DHT22;3827;49.928;8.548;2023-11-21T05:03:21;8.60;99.90
7572;DHT22;3827;49.928;8.548;2023-11-21T05:05:49;8.60;99.90
7572;DHT22;3827;49.928;8.548;2023-11-21T05:08:21;8.60;99.90
7572;DHT22;3827;49.928;8.548;2023-11-21T05:10:53;8.70;99.90
7572;DHT22;3827;49.928;8.548;2023-11-21T05:13:20;8.60;99.90
7572;DHT22;3827;49.928;8.548;2023-11-21T05:15:50;8.60;99.90
7572;DHT22;3827;49.928;8.548;2023-11-21T05:18:17;8.60;99.90
7572;DHT22;3827;49.928;8.548;2023-11-21T05:20:43;8.60;99.90
7572;DHT22;3827;49.928;8.548;2023-11-21T05:23:10;8.50;99.90
7572;DHT22;3827;49.928;8.548;2023-11-21T05:25:37;8.50;99.90
7572;DHT22;3827;49.928;8.548;2023-11-21T05:28:04;8.50;99.90
7572;DHT22;3827;49.928;8.548;2023-11-21T05:30:32;8.50;99.90
7572;DHT22;3827;49.928;8.548;2023-11-21T05:33:00;8.50;99.90
7572;DHT22;3827;49.928;8.548;2023-11-21T05:35:26;8.50;99.90
7572;DHT22;3827;49.928;8.548;2023-11-21T05:37:53;8.50;99.90
7572;DHT22;3827;49.928;8.548;2023-11-21T05:40:20;8.50;99.90
7572;DHT22;3827;49.928;8.548;2023-11-21T05:42:47;8.50;99.90
7572;DHT22;3827;49.928;8.548;2023-11-21T05:45:14;8.40;99.90
7572;DHT22;3827;49.928;8.548;2023-11-21T05:47:43;8.50;99.90
7572;DHT22;3827;49.928;8.548;2023-11-21T05:50:15;8.50;99.90
7572;DHT22;3827;49.928;8.548;2023-11-21T05:52:42;8.50;99.90
7572;DHT22;3827;49.928;8.548;2023-11-21T05:55:09;8.40;99.90
7572;DHT22;3827;49.928;8.548;2023-11-21T05:57:37;8.40;99.90
7572;DHT22;3827;49.928;8.548;2023-11-21T06:00:05;8.40;99.90
7572;DHT22;3827;49.928;8.548;2023-11-21T06:02:37;8.40;99.90
7572;DHT22;3827;49.928;8.548;2023-11-21T06:05:05;8.40;99.90
7572;DHT22;3827;49.928;8.548;2023-11-21T06:07:33;8.30;99.90
7572;DHT22;3827;49.928;8.548;2023-11-21T06:10:01;8.40;99.90
7572;DHT22;3827;49.928;8.548;2023-11-21T06:12:28;8.30;99.90
7572;DHT22;3827;49.928;8.548;2023-11-21T06:14:55;8.40;99.90
7572;DHT22;3827;49.928;8.548;2023-11-21T06:17:22;7.30;99.90
7572;DHT22;3827;49.928;8.548;2023-11-21T06:19:50;8.40;99.90
7572;DHT22;3827;49.928;8.548;2023-11-21T06:22:18;8.40;99.90
7572;DHT22;3827;49.928;8.548;2023-11-21T06:24:46;8.40;99.90
7572;DHT22;3827;49.928;8.548;2023-11-21T06:27:13;8.40;99.90
7572;DHT22;3827;49.928;8.548;2023-11-21T06:29:41;8.40;99.90
7572;DHT22;3827;49.928;8.548;2023-11-21T06:32:08;8.40;99.90
7572;DHT22;3827;49.928;8.548;2023-11-21T06:34:35;8.40;99.90
7572;DHT22;3827;49.928;8.548;2023-11-21T06:37:02;8.40;99.90
7572;DHT22;3827;49.928;8.548;2023-11-21T06:39:29;8.40;99.90
7572;DHT22;3827;49.928;8.548;2023-11-21T06:41:57;8.40;99.90
7572;DHT22;3827;49.928;8.548;2023-11-21T06:44:25;8.50;99.90
7572;DHT22;3827;49.928;8.548;2023-11-21T06:46:52;8.50;99.90
7572;DHT22;3827;49.928;8.548;2023-11-21T06:49:19;8.80;99.90
7572;DHT22;3827;49.928;8.548;2023-11-21T06:51:46;8.50;99.90
7572;DHT22;3827;49.928;8.548;2023-11-21T06:54:13;8.40;99.90
7572;DHT22;3827;49.928;8.548;2023-11-21T06:56:40;8.50;99.90
7572;DHT22;3827;49.928;8.548;2023-11-21T06:59:08;8.40;99.90
7572;DHT22;3827;49.928;8.548;2023-11-21T07:01:36;8.40;99.90
7572;DHT22;3827;49.928;8.548;2023-11-21T07:04:05;8.40;99.90
7572;DHT22;3827;49.928;8.548;2023-11-21T07:06:31;8.50;99.90
7572;DHT22;3827;49.928;8.548;2023-11-21T07:08:58;8.40;99.90
7572;DHT22;3827;49.928;8.548;2023-11-21T07:11:26;8.50;99.90
7572;DHT22;3827;49.928;8.548;2023-11-21T07:13:53;8.50;99.90
7572;DHT22;3827;49.928;8.548;2023-11-21T07:16:21;8.40;99.90
7572;DHT22;3827;49.928;8.548;2023-11-21T07:18:49;8.50;99.90
7572;DHT22;3827;49.928;8.548;2023-11-21T07:21:16;8.50;99.90
7572;DHT22;3827;49.928;8.548;2023-11-21T07:23:42;8.50;99.90
7572;DHT22;3827;49.928;8.548;2023-11-21T07:26:09;8.50;99.90
7572;DHT22;3827;49.928;8.548;2023-11-21T07:28:36;8.60;99.90
7572;DHT22;3827;49.928;8.548;2023-11-21T07:31:03;8.60;99.90
7572;DHT22;3827;49.928;8.548;2023-11-21T07:33:31;8.70;99.90
7572;DHT22;3827;49.928;8.548;2023-11-21T07:35:58;8.70;99.90
7572;DHT22;3827;49.928;8.548;2023-11-21T07:38:24;8.70;99.90
7572;DHT22;3827;49.928;8.548;2023-11-21T07:40:51;8.70;99.90
7572;DHT22;3827;49.928;8.548;2023-11-21T07:43:18;8.70;99.90
7572;DHT22;3827;49.928;8.548;2023-11-21T07:45:45;8.70;99.90
7572;DHT22;3827;49.928;8.548;2023-11-21T07:48:12;8.70;99.90
7572;DHT22;3827;49.928;8.548;2023-11-21T07:50:40;8.70;99.90
7572;DHT22;3827;49.928;8.548;2023-11-21T07:53:07;8.70;99.90
7572;DHT22;3827;49.928;8.548;2023-11-21T07:55:34;8.80;99.90
7572;DHT22;3827;49.928;8.548;2023-11-21T07:58:01;8.80;99.90
7572;DHT22;3827;49.928;8.548;2023-11-21T08:00:29;8.80;99.90
7572;DHT22;3827;49.928;8.548;2023-11-21T08:02:56;8.80;99.90
7572;DHT22;3827;49.928;8.548;2023-11-21T08:05:23;8.80;99.90
7572;DHT22;3827;49.928;8.548;2023-11-21T08:07:51;9.70;99.90
7572;DHT22;3827;49.928;8.548;2023-11-21T08:10:18;8.90;99.90
7572;DHT22;3827;49.928;8.548;2023-11-21T08:12:46;8.90;99.90
7572;DHT22;3827;49.928;8.548;2023-11-21T08:15:13;9.00;99.90
7572;DHT22;3827;49.928;8.548;2023-11-21T08:17:40;9.10;99.90
7572;DHT22;3827;49.928;8.548;2023-11-21T08:20:08;9.10;99.90
7572;DHT22;3827;49.928;8.548;2023-11-21T08:22:36;9.20;99.90
7572;DHT22;3827;49.928;8.548;2023-11-21T08:25:05;9.20;99.90
7572;DHT22;3827;49.928;8.548;2023-11-21T08:27:31;9.20;99.90
7572;DHT22;3827;49.928;8.548;2023-11-21T08:29:58;9.50;99.90
7572;DHT22;3827;49.928;8.548;2023-11-21T08:32:25;9.30;99.90
7572;DHT22;3827;49.928;8.548;2023-11-21T08:34:52;9.30;99.90
7572;DHT22;3827;49.928;8.548;2023-11-21T08:37:18;9.30;99.90
7572;DHT22;3827;49.928;8.548;2023-11-21T08:39:47;9.80;99.90
7572;DHT22;3827;49.928;8.548;2023-11-21T08:42:15;9.30;99.90
7572;DHT22;3827;49.928;8.548;2023-11-21T08:44:42;9.30;99.90
7572;DHT22;3827;49.928;8.548;2023-11-21T08:47:09;9.30;99.90
7572;DHT22;3827;49.928;8.548;2023-11-21T08:49:35;9.40;99.90
7572;DHT22;3827;49.928;8.548;2023-11-21T08:52:03;9.40;99.90
7572;DHT22;3827;49.928;8.548;2023-11-21T08:54:30;9.50;99.90
7572;DHT22;3827;49.928;8.548;2023-11-21T08:56:57;9.90;99.90
7572;DHT22;3827;49.928;8.548;2023-11-21T08:59:25;9.40;99.90
7572;DHT22;3827;49.928;8.548;2023-11-21T09:01:52;9.40;99.90
7572;DHT22;3827;49.928;8.548;2023-11-21T09:04:19;9.20;99.90
7572;DHT22;3827;49.928;8.548;2023-11-21T09:06:46;9.20;99.90
7572;DHT22;3827;49.928;8.548;2023-11-21T09:09:12;9.10;99.90
7572;DHT22;3827;49.928;8.548;2023-11-21T09:11:39;9.10;99.90
7572;DHT22;3827;49.928;8.548;2023-11-21T09:14:06;9.10;99.90
7572;DHT22;3827;49.928;8.548;2023-11-21T09:16:35;9.40;99.90
7572;DHT22;3827;49.928;8.548;2023-11-21T09:19:02;9.10;99.90
7572;DHT22;3827;49.928;8.548;2023-11-21T09:21:30;9.20;99.90
7572;DHT22;3827;49.928;8.548;2023-11-21T09:23:57;9.10;99.90
7572;DHT22;3827;49.928;8.548;2023-11-21T09:26:24;9.10;99.90
7572;DHT22;3827;49.928;8.548;2023-11-21T09:28:51;9.10;99.90
7572;DHT22;3827;49.928;8.548;2023-11-21T09:31:18;9.10;99.90
7572;DHT22;3827;49.928;8.548;2023-11-21T09:33:49;9.20;99.90
7572;DHT22;3827;49.928;8.548;2023-11-21T09:36:16;9.20;99.90
7572;DHT22;3827;49.928;8.548;2023-11-21T09:38:43;9.20;99.90
7572;DHT22;3827;49.928;8.548;2023-11-21T09:41:15;9.30;99.90
7572;DHT22;3827;49.928;8.548;2023-11-21T09:43:46;9.30;99.90
7572;DHT22;3827;49.928;8.548;2023-11-21T09:46:13;9.30;99.90
7572;DHT22;3827;49.928;8.548;2023-11-21T09:48:49;9.40;99.90
7572;DHT22;3827;49.928;8.548;2023-11-21T09:51:19;9.50;99.90
7572;DHT22;3827;49.928;8.548;2023-11-21T09:53:49;9.60;99.90
7572;DHT22;3827;49.928;8.548;2023-11-21T09:56:17;9.70;99.90
7572;DHT22;3827;49.928;8.548;2023-11-21T09:58:51;9.80;99.90
7572;DHT22;3827;49.928;8.548;2023-11-21T10:01:19;9.90;99.90
7572;DHT22;3827;49.928;8.548;2023-11-21T10:03:46;10.00;99.90
7572;DHT22;3827;49.928;8.548;2023-11-21T10:06:14;10.10;99.90
7572;DHT22;3827;49.928;8.548;2023-11-21T10:08:42;10.10;99.90
7572;DHT22;3827;49.928;8.548;2023-11-21T10:11:11;10.20;99.90
7572;DHT22;3827;49.928;8.548;2023-11-21T10:13:40;10.30;99.90
7572;DHT22;3827;49.928;8.548;2023-11-21T10:16:07;10.20;99.90
7572;DHT22;3827;49.928;8.548;2023-11-21T10:18:37;10.30;99.90
7572;DHT22;3827;49.928;8.548;2023-11-21T10:21:06;10.50;99.90
7572;DHT22;3827;49.928;8.548;2023-11-21T10:23:34;11.00;99.90
7572;DHT22;3827;49.928;8.548;2023-11-21T10:26:01;10.50;99.90
7572;DHT22;3827;49.928;8.548;2023-11-21T10:28:29;10.50;99.90
7572;DHT22;3827;49.928;8.548;2023-11-21T10:30:56;10.70;99.90
7572;DHT22;3827;49.928;8.548;2023-11-21T10:33:27;10.70;99.90
7572;DHT22;3827;49.928;8.548;2023-11-21T10:35:55;10.70;99.90
7572;DHT22;3827;49.928;8.548;2023-11-21T10:38:22;10.70;99.90
7572;DHT22;3827;49.928;8.548;2023-11-21T10:40:51;10.80;99.90
7572;DHT22;3827;49.928;8.548;2023-11-21T10:43:21;10.80;99.90
7572;DHT22;3827;49.928;8.548;2023-11-21T10:45:50;10.90;99.90
7572;DHT22;3827;49.928;8.548;2023-11-21T10:48:17;10.90;99.90
7572;DHT22;3827;49.928;8.548;2023-11-21T10:50:44;10.90;99.90
7572;DHT22;3827;49.928;8.548;2023-11-21T10:53:11;10.90;99.90
7572;DHT22;3827;49.928;8.548;2023-11-21T10:55:38;10.90;99.90
7572;DHT22;3827;49.928;8.548;2023-11-21T10:58:07;10.80;99.90
7572;DHT22;3827;49.928;8.548;2023-11-21T11:00:37;10.60;99.90
7572;DHT22;3827;49.928;8.548;2023-11-21T11:03:05;10.50;99.90
7572;DHT22;3827;49.928;8.548;2023-11-21T11:05:39;10.30;99.90
7572;DHT22;3827;49.928;8.548;2023-11-21T11:08:08;10.30;99.90
7572;DHT22;3827;49.928;8.548;2023-11-21T11:10:38;10.50;99.90
7572;DHT22;3827;49.928;8.548;2023-11-21T11:13:07;10.70;99.90
7572;DHT22;3827;49.928;8.548;2023-11-21T11:15:34;11.00;99.90
7572;DHT22;3827;49.928;8.548;2023-11-21T11:18:02;11.20;99.90
7572;DHT22;3827;49.928;8.548;2023-11-21T11:20:35;11.40;99.90
7572;DHT22;3827;49.928;8.548;2023-11-21T11:23:23;11.60;99.90
7572;DHT22;3827;49.928;8.548;2023-11-21T11:26:08;11.80;99.90
7572;DHT22;3827;49.928;8.548;2023-11-21T11:28:47;12.10;99.90
7572;DHT22;3827;49.928;8.548;2023-11-21T11:31:23;12.40;99.90
7572;DHT22;3827;49.928;8.548;2023-11-21T11:33:55;13.10;99.90
7572;DHT22;3827;49.928;8.548;2023-11-21T11:36:31;13.00;99.90
7572;DHT22;3827;49.928;8.548;2023-11-21T11:38:59;13.60;99.90
7572;DHT22;3827;49.928;8.548;2023-11-21T11:41:29;13.90;99.90
7572;DHT22;3827;49.928;8.548;2023-11-21T11:44:00;14.10;99.90
7572;DHT22;3827;49.928;8.548;2023-11-21T11:46:44;14.40;99.90
7572;DHT22;3827;49.928;8.548;2023-11-21T11:49:23;14.40;99.90
7572;DHT22;3827;49.928;8.548;2023-11-21T11:52:31;14.10;99.90
7572;DHT22;3827;49.928;8.548;2023-11-21T11:54:59;14.00;99.90
7572;DHT22;3827;49.928;8.548;2023-11-21T11:57:26;13.80;99.90
7572;DHT22;3827;49.928;8.548;2023-11-21T12:00:10;13.80;99.90
7572;DHT22;3827;49.928;8.548;2023-11-21T12:02:42;13.60;99.90
7572;DHT22;3827;49.928;8.548;2023-11-21T12:05:10;13.40;99.90
7572;DHT22;3827;49.928;8.548;2023-11-21T12:07:45;13.10;99.90
7572;DHT22;3827;49.928;8.548;2023-11-21T12:10:14;13.00;99.90
7572;DHT22;3827;49.928;8.548;2023-11-21T12:12:47;13.00;99.90
7572;DHT22;3827;49.928;8.548;2023-11-21T12:15:15;12.90;99.90
7572;DHT22;3827;49.928;8.548;2023-11-21T12:17:43;12.70;99.90
7572;DHT22;3827;49.928;8.548;2023-11-21T12:20:11;12.80;99.90
7572;DHT22;3827;49.928;8.548;2023-11-21T12:22:43;12.90;99.90
7572;DHT22;3827;49.928;8.548;2023-11-21T12:25:10;12.90;99.90
7572;DHT22;3827;49.928;8.548;2023-11-21T12:27:44;12.80;99.90
7572;DHT22;3827;49.928;8.548;2023-11-21T12:30:13;12.80;99.90
7572;DHT22;3827;49.928;8.548;2023-11-21T12:32:43;12.70;99.90
7572;DHT22;3827;49.928;8.548;2023-11-21T12:35:12;12.40;99.90
7572;DHT22;3827;49.928;8.548;2023-11-21T12:37:40;12.40;99.90
7572;DHT22;3827;49.928;8.548;2023-11-21T12:40:09;12.40;99.90
7572;DHT22;3827;49.928;8.548;2023-11-21T12:42:38;12.30;99.90
7572;DHT22;3827;49.928;8.548;2023-11-21T12:45:09;12.10;99.90
7572;DHT22;3827;49.928;8.548;2023-11-21T12:47:42;12.20;99.90
7572;DHT22;3827;49.928;8.548;2023-11-21T12:50:10;12.20;99.90
7572;DHT22;3827;49.928;8.548;2023-11-21T12:52:44;12.10;99.90
7572;DHT22;3827;49.928;8.548;2023-11-21T12:55:16;12.20;99.90
7572;DHT22;3827;49.928;8.548;2023-11-21T12:57:44;12.30;99.90
7572;DHT22;3827;49.928;8.548;2023-11-21T13:00:13;12.20;99.90
7572;DHT22;3827;49.928;8.548;2023-11-21T13:02:54;12.20;99.90
7572;DHT22;3827;49.928;8.548;2023-11-21T13:05:29;12.20;99.90
7572;DHT22;3827;49.928;8.548;2023-11-21T13:07:58;12.30;99.90
7572;DHT22;3827;49.928;8.548;2023-11-21T13:10:26;12.30;99.90
7572;DHT22;3827;49.928;8.548;2023-11-21T13:12:56;12.20;99.90
7572;DHT22;3827;49.928;8.548;2023-11-21T13:15:25;12.10;99.90
7572;DHT22;3827;49.928;8.548;2023-11-21T13:17:54;12.00;99.90
7572;DHT22;3827;49.928;8.548;2023-11-21T13:20:23;12.00;99.90
7572;DHT22;3827;49.928;8.548;2023-11-21T13:22:51;11.90;99.90
7572;DHT22;3827;49.928;8.548;2023-11-21T13:25:20;11.90;99.90
7572;DHT22;3827;49.928;8.548;2023-11-21T13:27:47;12.00;99.90
7572;DHT22;3827;49.928;8.548;2023-11-21T13:30:15;11.90;99.90
7572;DHT22;3827;49.928;8.548;2023-11-21T13:32:43;11.70;99.90
7572;DHT22;3827;49.928;8.548;2023-11-21T13:35:13;11.70;99.90
7572;DHT22;3827;49.928;8.548;2023-11-21T13:37:49;11.70;99.90
7572;DHT22;3827;49.928;8.548;2023-11-21T13:40:20;11.70;99.90
7572;DHT22;3827;49.928;8.548;2023-11-21T13:42:51;11.60;99.90
7572;DHT22;3827;49.928;8.548;2023-11-21T13:45:21;11.70;99.90
7572;DHT22;3827;49.928;8.548;2023-11-21T13:47:49;11.60;99.90
7572;DHT22;3827;49.928;8.548;2023-11-21T13:50:18;11.60;99.90
7572;DHT22;3827;49.928;8.548;2023-11-21T13:52:48;11.40;99.90
7572;DHT22;3827;49.928;8.548;2023-11-21T13:55:16;12.30;99.90
7572;DHT22;3827;49.928;8.548;2023-11-21T13:57:43;11.40;99.90
7572;DHT22;3827;49.928;8.548;2023-11-21T14:00:13;11.40;99.90
7572;DHT22;3827;49.928;8.548;2023-11-21T14:03:02;11.30;99.90
7572;DHT22;3827;49.928;8.548;2023-11-21T14:05:35;11.20;99.90
7572;DHT22;3827;49.928;8.548;2023-11-21T14:08:02;11.20;99.90
7572;DHT22;3827;49.928;8.548;2023-11-21T14:10:30;11.10;99.90
7572;DHT22;3827;49.928;8.548;2023-11-21T14:13:05;11.20;99.90
7572;DHT22;3827;49.928;8.548;2023-11-21T14:15:32;11.20;99.90
7572;DHT22;3827;49.928;8.548;2023-11-21T14:18:03;11.10;99.90
7572;DHT22;3827;49.928;8.548;2023-11-21T14:20:34;11.10;99.90
7572;DHT22;3827;49.928;8.548;2023-11-21T14:23:02;11.20;99.90
7572;DHT22;3827;49.928;8.548;2023-11-21T14:25:30;11.10;99.90
7572;DHT22;3827;49.928;8.548;2023-11-21T14:27:57;11.20;99.90
7572;DHT22;3827;49.928;8.548;2023-11-21T14:30:24;11.50;99.90
7572;DHT22;3827;49.928;8.548;2023-11-21T14:32:55;11.10;99.90
7572;DHT22;3827;49.928;8.548;2023-11-21T14:35:24;11.50;99.90
7572;DHT22;3827;49.928;8.548;2023-11-21T14:37:53;11.00;99.90
7572;DHT22;3827;49.928;8.548;2023-11-21T14:40:21;11.50;99.90
7572;DHT22;3827;49.928;8.548;2023-11-21T14:42:49;10.90;99.90
7572;DHT22;3827;49.928;8.548;2023-11-21T14:45:18;10.90;99.90
7572;DHT22;3827;49.928;8.548;2023-11-21T14:47:46;10.80;99.90
7572;DHT22;3827;49.928;8.548;2023-11-21T14:50:20;11.00;99.90
7572;DHT22;3827;49.928;8.548;2023-11-21T14:53:15;10.80;99.90
7572;DHT22;3827;49.928;8.548;2023-11-21T14:55:41;10.70;99.90
7572;DHT22;3827;49.928;8.548;2023-11-21T14:58:20;10.70;99.90
7572;DHT22;3827;49.928;8.548;2023-11-21T15:00:53;10.70;99.90
7572;DHT22;3827;49.928;8.548;2023-11-21T15:03:24;10.60;99.90
7572;DHT22;3827;49.928;8.548;2023-11-21T15:06:09;10.50;99.90
7572;DHT22;3827;49.928;8.548;2023-11-21T15:09:03;10.50;99.90
7572;DHT22;3827;49.928;8.548;2023-11-21T15:11:48;10.40;99.90
7572;DHT22;3827;49.928;8.548;2023-11-21T15:14:16;10.40;99.90
7572;DHT22;3827;49.928;8.548;2023-11-21T15:16:49;10.40;99.90
7572;DHT22;3827;49.928;8.548;2023-11-21T15:19:19;10.30;99.90
7572;DHT22;3827;49.928;8.548;2023-11-21T15:21:51;10.40;99.90
7572;DHT22;3827;49.928;8.548;2023-11-21T15:24:19;10.30;99.90
7572;DHT22;3827;49.928;8.548;2023-11-21T15:26:46;10.30;99.90
7572;DHT22;3827;49.928;8.548;2023-11-21T15:29:13;10.30;99.90
7572;DHT22;3827;49.928;8.548;2023-11-21T15:31:40;10.30;99.90
7572;DHT22;3827;49.928;8.548;2023-11-21T15:34:11;10.30;99.90
7572;DHT22;3827;49.928;8.548;2023-11-21T15:36:38;10.30;99.90
7572;DHT22;3827;49.928;8.548;2023-11-21T15:39:04;10.20;99.90
7572;DHT22;3827;49.928;8.548;2023-11-21T15:41:34;11.00;99.90
7572;DHT22;3827;49.928;8.548;2023-11-21T15:44:01;10.20;99.90
7572;DHT22;3827;49.928;8.548;2023-11-21T15:46:29;10.90;99.90
7572;DHT22;3827;49.928;8.548;2023-11-21T15:48:56;10.10;99.90
7572;DHT22;3827;49.928;8.548;2023-11-21T15:51:23;10.10;99.90
7572;DHT22;3827;49.928;8.548;2023-11-21T15:53:50;9.80;99.90
7572;DHT22;3827;49.928;8.548;2023-11-21T15:56:17;9.70;99.90
7572;DHT22;3827;49.928;8.548;2023-11-21T15:58:45;9.60;99.90
7572;DHT22;3827;49.928;8.548;2023-11-21T16:01:12;7.70;99.90
7572;DHT22;3827;49.928;8.548;2023-11-21T16:03:39;9.30;99.90
7572;DHT22;3827;49.928;8.548;2023-11-21T16:06:06;9.80;99.90
7572;DHT22;3827;49.928;8.548;2023-11-21T16:08:35;9.20;99.90
7572;DHT22;3827;49.928;8.548;2023-11-21T16:11:02;9.10;99.90
7572;DHT22;3827;49.928;8.548;2023-11-21T16:13:29;9.10;99.90
7572;DHT22;3827;49.928;8.548;2023-11-21T16:15:58;9.20;99.90
7572;DHT22;3827;49.928;8.548;2023-11-21T16:18:25;9.00;99.90
7572;DHT22;3827;49.928;8.548;2023-11-21T16:20:52;9.00;99.90